sensor_id;sensor_type;location;lat;lon;timestamp;P1;durP1;ratioP1;P2;durP2;ratioP2
7965;SDS011;4028;43.272;26.932;2022-12-18T00:01:04;3.23;;;2.97;;
7965;SDS011;4028;43.272;26.932;2022-12-18T00:03:32;3.03;;;2.83;;
7965;SDS011;4028;43.272;26.932;2022-12-18T00:05:58;3.80;;;3.27;;
7965;SDS011;4028;43.272;26.932;2022-12-18T00:08:24;3.30;;;3.00;;
7965;SDS011;4028;43.272;26.932;2022-12-18T00:10:49;3.10;;;2.80;;
7965;SDS011;4028;43.272;26.932;2022-12-18T00:13:15;3.80;;;3.20;;
7965;SDS011;4028;43.272;26.932;2022-12-18T00:15:40;3.50;;;3.20;;
7965;SDS011;4028;43.272;26.932;2022-12-18T00:18:06;3.23;;;2.93;;
7965;SDS011;4028;43.272;26.932;2022-12-18T00:20:35;2.80;;;2.60;;
7965;SDS011;4028;43.272;26.932;2022-12-18T00:23:01;3.33;;;3.03;;
7965;SDS011;4028;43.272;26.932;2022-12-18T00:25:27;5.13;;;3.57;;
7965;SDS011;4028;43.272;26.932;2022-12-18T00:27:52;4.07;;;3.23;;
7965;SDS011;4028;43.272;26.932;2022-12-18T00:30:18;3.37;;;3.07;;
7965;SDS011;4028;43.272;26.932;2022-12-18T00:32:43;3.47;;;3.17;;
7965;SDS011;4028;43.272;26.932;2022-12-18T00:35:09;3.30;;;3.00;;
7965;SDS011;4028;43.272;26.932;2022-12-18T00:37:34;3.10;;;2.80;;
7965;SDS011;4028;43.272;26.932;2022-12-18T00:40:00;3.23;;;2.93;;
7965;SDS011;4028;43.272;26.932;2022-12-18T00:42:26;3.33;;;3.00;;
7965;SDS011;4028;43.272;26.932;2022-12-18T00:45:10;3.33;;;3.03;;
7965;SDS011;4028;43.272;26.932;2022-12-18T00:47:35;3.50;;;3.20;;
7965;SDS011;4028;43.272;26.932;2022-12-18T00:50:01;3.40;;;3.10;;
7965;SDS011;4028;43.272;26.932;2022-12-18T00:52:27;5.10;;;3.00;;
7965;SDS011;4028;43.272;26.932;2022-12-18T00:54:52;3.37;;;2.70;;
7965;SDS011;4028;43.272;26.932;2022-12-18T00:57:17;3.77;;;2.70;;
7965;SDS011;4028;43.272;26.932;2022-12-18T00:59:43;3.20;;;2.87;;
7965;SDS011;4028;43.272;26.932;2022-12-18T01:02:08;3.77;;;3.07;;
7965;SDS011;4028;43.272;26.932;2022-12-18T01:04:34;3.50;;;3.20;;
7965;SDS011;4028;43.272;26.932;2022-12-18T01:06:59;3.47;;;3.17;;
7965;SDS011;4028;43.272;26.932;2022-12-18T01:09:25;3.03;;;2.73;;
7965;SDS011;4028;43.272;26.932;2022-12-18T01:11:51;3.53;;;3.20;;
7965;SDS011;4028;43.272;26.932;2022-12-18T01:14:17;4.20;;;3.73;;
7965;SDS011;4028;43.272;26.932;2022-12-18T01:16:43;3.00;;;2.70;;
7965;SDS011;4028;43.272;26.932;2022-12-18T01:19:08;3.70;;;3.37;;
7965;SDS011;4028;43.272;26.932;2022-12-18T01:21:34;3.30;;;3.00;;
7965;SDS011;4028;43.272;26.932;2022-12-18T01:24:00;3.57;;;3.27;;
7965;SDS011;4028;43.272;26.932;2022-12-18T01:26:26;3.67;;;3.37;;
7965;SDS011;4028;43.272;26.932;2022-12-18T01:28:54;4.53;;;3.53;;
7965;SDS011;4028;43.272;26.932;2022-12-18T01:31:25;3.50;;;3.20;;
7965;SDS011;4028;43.272;26.932;2022-12-18T01:33:52;3.73;;;3.33;;
7965;SDS011;4028;43.272;26.932;2022-12-18T01:36:28;4.13;;;3.47;;
7965;SDS011;4028;43.272;26.932;2022-12-18T01:38:56;4.10;;;3.70;;
7965;SDS011;4028;43.272;26.932;2022-12-18T01:41:25;4.43;;;4.03;;
7965;SDS011;4028;43.272;26.932;2022-12-18T01:47:58;4.07;;;3.43;;
7965;SDS011;4028;43.272;26.932;2022-12-18T01:50:16;4.17;;;3.77;;
7965;SDS011;4028;43.272;26.932;2022-12-18T01:52:52;4.80;;;3.97;;
7965;SDS011;4028;43.272;26.932;2022-12-18T01:55:21;4.83;;;4.13;;
7965;SDS011;4028;43.272;26.932;2022-12-18T01:57:51;4.53;;;3.60;;
7965;SDS011;4028;43.272;26.932;2022-12-18T02:00:19;6.27;;;4.83;;
7965;SDS011;4028;43.272;26.932;2022-12-18T02:02:47;5.20;;;4.33;;
7965;SDS011;4028;43.272;26.932;2022-12-18T02:05:36;7.20;;;4.80;;
7965;SDS011;4028;43.272;26.932;2022-12-18T02:18:58;6.17;;;4.67;;
7965;SDS011;4028;43.272;26.932;2022-12-18T02:24:25;7.27;;;5.47;;
7965;SDS011;4028;43.272;26.932;2022-12-18T02:26:58;6.37;;;5.67;;
7965;SDS011;4028;43.272;26.932;2022-12-18T02:29:32;5.50;;;4.97;;
7965;SDS011;4028;43.272;26.932;2022-12-18T02:32:13;7.37;;;5.80;;
7965;SDS011;4028;43.272;26.932;2022-12-18T02:34:42;7.37;;;5.40;;
7965;SDS011;4028;43.272;26.932;2022-12-18T02:37:11;7.63;;;6.03;;
7965;SDS011;4028;43.272;26.932;2022-12-18T02:39:40;8.13;;;6.47;;
7965;SDS011;4028;43.272;26.932;2022-12-18T02:42:08;6.17;;;5.57;;
7965;SDS011;4028;43.272;26.932;2022-12-18T02:44:35;7.10;;;5.83;;
7965;SDS011;4028;43.272;26.932;2022-12-18T02:47:09;6.53;;;5.60;;
7965;SDS011;4028;43.272;26.932;2022-12-18T02:56:24;6.53;;;5.70;;
7965;SDS011;4028;43.272;26.932;2022-12-18T03:04:11;7.60;;;6.67;;
7965;SDS011;4028;43.272;26.932;2022-12-18T03:06:50;8.70;;;6.70;;
7965;SDS011;4028;43.272;26.932;2022-12-18T03:09:27;7.87;;;6.23;;
7965;SDS011;4028;43.272;26.932;2022-12-18T03:12:01;9.53;;;6.80;;
7965;SDS011;4028;43.272;26.932;2022-12-18T03:14:49;8.73;;;6.70;;
7965;SDS011;4028;43.272;26.932;2022-12-18T03:17:22;9.13;;;6.97;;
7965;SDS011;4028;43.272;26.932;2022-12-18T03:19:51;9.57;;;7.23;;
7965;SDS011;4028;43.272;26.932;2022-12-18T03:22:19;8.67;;;7.30;;
7965;SDS011;4028;43.272;26.932;2022-12-18T03:24:48;8.07;;;6.63;;
7965;SDS011;4028;43.272;26.932;2022-12-18T03:27:14;7.90;;;6.97;;
7965;SDS011;4028;43.272;26.932;2022-12-18T03:29:50;9.03;;;7.57;;
7965;SDS011;4028;43.272;26.932;2022-12-18T03:32:33;8.07;;;6.93;;
7965;SDS011;4028;43.272;26.932;2022-12-18T03:35:20;10.57;;;7.03;;
7965;SDS011;4028;43.272;26.932;2022-12-18T03:37:49;8.47;;;6.80;;
7965;SDS011;4028;43.272;26.932;2022-12-18T03:40:15;9.80;;;7.27;;
7965;SDS011;4028;43.272;26.932;2022-12-18T03:48:06;9.20;;;7.40;;
7965;SDS011;4028;43.272;26.932;2022-12-18T03:50:47;9.60;;;7.73;;
7965;SDS011;4028;43.272;26.932;2022-12-18T03:53:41;8.23;;;7.00;;
7965;SDS011;4028;43.272;26.932;2022-12-18T03:56:11;9.40;;;7.00;;
7965;SDS011;4028;43.272;26.932;2022-12-18T03:58:40;8.90;;;7.17;;
7965;SDS011;4028;43.272;26.932;2022-12-18T04:01:08;8.83;;;7.50;;
7965;SDS011;4028;43.272;26.932;2022-12-18T04:03:37;9.87;;;7.80;;
7965;SDS011;4028;43.272;26.932;2022-12-18T04:06:04;9.73;;;8.00;;
7965;SDS011;4028;43.272;26.932;2022-12-18T04:08:31;10.37;;;8.27;;
7965;SDS011;4028;43.272;26.932;2022-12-18T04:10:59;11.17;;;8.80;;
7965;SDS011;4028;43.272;26.932;2022-12-18T04:13:29;10.67;;;7.97;;
7965;SDS011;4028;43.272;26.932;2022-12-18T04:15:58;10.87;;;8.13;;
7965;SDS011;4028;43.272;26.932;2022-12-18T04:18:24;11.03;;;8.20;;
7965;SDS011;4028;43.272;26.932;2022-12-18T04:20:49;11.00;;;8.23;;
7965;SDS011;4028;43.272;26.932;2022-12-18T04:23:14;11.60;;;8.70;;
7965;SDS011;4028;43.272;26.932;2022-12-18T04:25:40;10.73;;;8.40;;
7965;SDS011;4028;43.272;26.932;2022-12-18T04:28:05;11.27;;;8.67;;
7965;SDS011;4028;43.272;26.932;2022-12-18T04:30:31;12.63;;;8.73;;
7965;SDS011;4028;43.272;26.932;2022-12-18T04:32:56;11.07;;;8.40;;
7965;SDS011;4028;43.272;26.932;2022-12-18T04:35:22;10.17;;;8.13;;
7965;SDS011;4028;43.272;26.932;2022-12-18T04:37:47;12.20;;;8.80;;
7965;SDS011;4028;43.272;26.932;2022-12-18T04:40:13;11.13;;;8.17;;
7965;SDS011;4028;43.272;26.932;2022-12-18T04:42:39;9.80;;;8.40;;
7965;SDS011;4028;43.272;26.932;2022-12-18T04:45:05;13.23;;;9.43;;
7965;SDS011;4028;43.272;26.932;2022-12-18T04:47:31;12.97;;;9.13;;
7965;SDS011;4028;43.272;26.932;2022-12-18T04:49:57;11.47;;;9.03;;
7965;SDS011;4028;43.272;26.932;2022-12-18T04:52:23;11.80;;;9.13;;
7965;SDS011;4028;43.272;26.932;2022-12-18T04:54:48;13.60;;;9.70;;
7965;SDS011;4028;43.272;26.932;2022-12-18T04:57:13;12.57;;;9.03;;
7965;SDS011;4028;43.272;26.932;2022-12-18T04:59:39;12.63;;;9.57;;
7965;SDS011;4028;43.272;26.932;2022-12-18T05:02:05;11.90;;;8.93;;
7965;SDS011;4028;43.272;26.932;2022-12-18T05:04:30;12.93;;;9.87;;
7965;SDS011;4028;43.272;26.932;2022-12-18T05:06:56;14.40;;;9.73;;
7965;SDS011;4028;43.272;26.932;2022-12-18T05:09:21;11.93;;;9.10;;
7965;SDS011;4028;43.272;26.932;2022-12-18T05:11:47;11.33;;;9.07;;
7965;SDS011;4028;43.272;26.932;2022-12-18T05:14:12;13.20;;;9.60;;
7965;SDS011;4028;43.272;26.932;2022-12-18T05:16:37;12.80;;;9.43;;
7965;SDS011;4028;43.272;26.932;2022-12-18T05:19:03;13.03;;;9.33;;
7965;SDS011;4028;43.272;26.932;2022-12-18T05:21:28;14.70;;;9.30;;
7965;SDS011;4028;43.272;26.932;2022-12-18T05:23:54;11.87;;;9.33;;
7965;SDS011;4028;43.272;26.932;2022-12-18T05:26:19;10.13;;;8.60;;
7965;SDS011;4028;43.272;26.932;2022-12-18T05:28:45;12.27;;;9.97;;
7965;SDS011;4028;43.272;26.932;2022-12-18T05:31:11;12.33;;;9.57;;
7965;SDS011;4028;43.272;26.932;2022-12-18T05:33:36;13.90;;;9.70;;
7965;SDS011;4028;43.272;26.932;2022-12-18T05:36:04;15.00;;;9.77;;
7965;SDS011;4028;43.272;26.932;2022-12-18T05:38:31;13.80;;;10.27;;
7965;SDS011;4028;43.272;26.932;2022-12-18T05:40:58;12.60;;;10.03;;
7965;SDS011;4028;43.272;26.932;2022-12-18T05:43:25;13.43;;;10.53;;
7965;SDS011;4028;43.272;26.932;2022-12-18T05:45:51;13.73;;;10.33;;
7965;SDS011;4028;43.272;26.932;2022-12-18T05:48:18;12.27;;;9.17;;
7965;SDS011;4028;43.272;26.932;2022-12-18T05:50:45;11.57;;;9.27;;
7965;SDS011;4028;43.272;26.932;2022-12-18T05:53:11;13.73;;;9.83;;
7965;SDS011;4028;43.272;26.932;2022-12-18T05:55:39;12.63;;;10.13;;
7965;SDS011;4028;43.272;26.932;2022-12-18T05:58:06;15.43;;;10.23;;
7965;SDS011;4028;43.272;26.932;2022-12-18T06:00:34;14.63;;;11.40;;
7965;SDS011;4028;43.272;26.932;2022-12-18T06:03:04;12.77;;;10.10;;
7965;SDS011;4028;43.272;26.932;2022-12-18T06:05:34;13.23;;;10.13;;
7965;SDS011;4028;43.272;26.932;2022-12-18T06:08:04;14.10;;;10.30;;
7965;SDS011;4028;43.272;26.932;2022-12-18T06:10:31;13.40;;;10.40;;
7965;SDS011;4028;43.272;26.932;2022-12-18T06:12:57;14.97;;;10.60;;
7965;SDS011;4028;43.272;26.932;2022-12-18T06:15:22;13.87;;;11.20;;
7965;SDS011;4028;43.272;26.932;2022-12-18T06:17:48;12.77;;;10.27;;
7965;SDS011;4028;43.272;26.932;2022-12-18T06:20:14;14.30;;;11.10;;
7965;SDS011;4028;43.272;26.932;2022-12-18T06:22:39;15.27;;;11.67;;
7965;SDS011;4028;43.272;26.932;2022-12-18T06:25:05;17.27;;;11.10;;
7965;SDS011;4028;43.272;26.932;2022-12-18T06:27:31;15.10;;;11.13;;
7965;SDS011;4028;43.272;26.932;2022-12-18T06:29:58;16.70;;;11.13;;
7965;SDS011;4028;43.272;26.932;2022-12-18T06:32:24;17.83;;;11.63;;
7965;SDS011;4028;43.272;26.932;2022-12-18T06:34:49;18.90;;;12.20;;
7965;SDS011;4028;43.272;26.932;2022-12-18T06:37:15;15.33;;;11.50;;
7965;SDS011;4028;43.272;26.932;2022-12-18T06:39:40;16.47;;;11.90;;
7965;SDS011;4028;43.272;26.932;2022-12-18T06:42:06;17.07;;;12.17;;
7965;SDS011;4028;43.272;26.932;2022-12-18T06:44:31;19.83;;;13.93;;
7965;SDS011;4028;43.272;26.932;2022-12-18T06:46:57;16.30;;;11.60;;
7965;SDS011;4028;43.272;26.932;2022-12-18T06:49:22;14.93;;;11.87;;
7965;SDS011;4028;43.272;26.932;2022-12-18T06:51:48;18.07;;;12.87;;
7965;SDS011;4028;43.272;26.932;2022-12-18T06:54:13;18.50;;;13.73;;
7965;SDS011;4028;43.272;26.932;2022-12-18T06:56:39;17.63;;;13.03;;
7965;SDS011;4028;43.272;26.932;2022-12-18T06:59:04;15.73;;;12.27;;
7965;SDS011;4028;43.272;26.932;2022-12-18T07:01:30;15.67;;;11.47;;
7965;SDS011;4028;43.272;26.932;2022-12-18T07:03:56;17.30;;;11.67;;
7965;SDS011;4028;43.272;26.932;2022-12-18T07:06:22;18.63;;;12.03;;
7965;SDS011;4028;43.272;26.932;2022-12-18T07:08:49;17.07;;;11.90;;
7965;SDS011;4028;43.272;26.932;2022-12-18T07:11:16;20.03;;;13.33;;
7965;SDS011;4028;43.272;26.932;2022-12-18T07:13:42;20.83;;;13.27;;
7965;SDS011;4028;43.272;26.932;2022-12-18T07:16:09;15.23;;;12.17;;
7965;SDS011;4028;43.272;26.932;2022-12-18T07:18:42;18.10;;;11.60;;
7965;SDS011;4028;43.272;26.932;2022-12-18T07:21:10;15.90;;;11.70;;
7965;SDS011;4028;43.272;26.932;2022-12-18T07:23:37;17.03;;;12.67;;
7965;SDS011;4028;43.272;26.932;2022-12-18T07:26:07;16.50;;;12.43;;
7965;SDS011;4028;43.272;26.932;2022-12-18T07:28:35;16.90;;;12.83;;
7965;SDS011;4028;43.272;26.932;2022-12-18T07:31:05;16.57;;;12.40;;
7965;SDS011;4028;43.272;26.932;2022-12-18T07:33:32;20.70;;;13.90;;
7965;SDS011;4028;43.272;26.932;2022-12-18T07:35:58;20.03;;;14.10;;
7965;SDS011;4028;43.272;26.932;2022-12-18T07:38:24;20.80;;;13.83;;
7965;SDS011;4028;43.272;26.932;2022-12-18T07:40:50;20.67;;;14.93;;
7965;SDS011;4028;43.272;26.932;2022-12-18T07:43:15;17.50;;;13.00;;
7965;SDS011;4028;43.272;26.932;2022-12-18T07:45:42;16.77;;;13.63;;
7965;SDS011;4028;43.272;26.932;2022-12-18T07:48:07;23.73;;;14.53;;
7965;SDS011;4028;43.272;26.932;2022-12-18T07:50:33;18.30;;;13.77;;
7965;SDS011;4028;43.272;26.932;2022-12-18T07:52:58;17.20;;;13.33;;
7965;SDS011;4028;43.272;26.932;2022-12-18T07:55:28;19.73;;;14.43;;
7965;SDS011;4028;43.272;26.932;2022-12-18T07:57:54;20.90;;;15.00;;
7965;SDS011;4028;43.272;26.932;2022-12-18T08:00:20;19.33;;;14.13;;
7965;SDS011;4028;43.272;26.932;2022-12-18T08:02:46;20.10;;;14.10;;
7965;SDS011;4028;43.272;26.932;2022-12-18T08:05:11;20.50;;;15.17;;
7965;SDS011;4028;43.272;26.932;2022-12-18T08:07:37;21.23;;;15.07;;
7965;SDS011;4028;43.272;26.932;2022-12-18T08:10:02;33.67;;;24.37;;
7965;SDS011;4028;43.272;26.932;2022-12-18T08:12:28;21.03;;;15.40;;
7965;SDS011;4028;43.272;26.932;2022-12-18T08:14:53;24.07;;;19.00;;
7965;SDS011;4028;43.272;26.932;2022-12-18T08:17:19;20.50;;;16.00;;
7965;SDS011;4028;43.272;26.932;2022-12-18T08:19:45;22.73;;;15.30;;
7965;SDS011;4028;43.272;26.932;2022-12-18T08:22:10;19.90;;;14.93;;
7965;SDS011;4028;43.272;26.932;2022-12-18T08:24:43;22.40;;;16.43;;
7965;SDS011;4028;43.272;26.932;2022-12-18T08:27:17;22.00;;;14.97;;
7965;SDS011;4028;43.272;26.932;2022-12-18T08:29:43;23.47;;;15.87;;
7965;SDS011;4028;43.272;26.932;2022-12-18T08:32:08;21.80;;;15.13;;
7965;SDS011;4028;43.272;26.932;2022-12-18T08:34:34;21.90;;;15.27;;
7965;SDS011;4028;43.272;26.932;2022-12-18T08:36:59;20.37;;;14.73;;
7965;SDS011;4028;43.272;26.932;2022-12-18T08:39:25;20.10;;;15.00;;
7965;SDS011;4028;43.272;26.932;2022-12-18T08:41:50;20.50;;;15.17;;
7965;SDS011;4028;43.272;26.932;2022-12-18T08:44:39;22.70;;;15.10;;
7965;SDS011;4028;43.272;26.932;2022-12-18T08:47:05;21.07;;;15.40;;
7965;SDS011;4028;43.272;26.932;2022-12-18T08:49:32;20.07;;;14.87;;
7965;SDS011;4028;43.272;26.932;2022-12-18T08:51:58;19.20;;;15.07;;
7965;SDS011;4028;43.272;26.932;2022-12-18T08:54:24;19.83;;;15.27;;
7965;SDS011;4028;43.272;26.932;2022-12-18T08:56:49;18.93;;;13.73;;
7965;SDS011;4028;43.272;26.932;2022-12-18T08:59:16;20.03;;;14.63;;
7965;SDS011;4028;43.272;26.932;2022-12-18T09:01:42;21.00;;;15.48;;
7965;SDS011;4028;43.272;26.932;2022-12-18T09:04:08;20.03;;;14.43;;
7965;SDS011;4028;43.272;26.932;2022-12-18T09:06:34;17.00;;;13.17;;
7965;SDS011;4028;43.272;26.932;2022-12-18T09:09:01;21.73;;;15.17;;
7965;SDS011;4028;43.272;26.932;2022-12-18T09:11:28;22.40;;;16.53;;
7965;SDS011;4028;43.272;26.932;2022-12-18T09:13:54;20.33;;;14.00;;
7965;SDS011;4028;43.272;26.932;2022-12-18T09:16:20;28.97;;;18.83;;
7965;SDS011;4028;43.272;26.932;2022-12-18T09:18:47;20.67;;;14.90;;
7965;SDS011;4028;43.272;26.932;2022-12-18T09:21:14;29.87;;;18.10;;
7965;SDS011;4028;43.272;26.932;2022-12-18T09:23:41;27.30;;;17.00;;
7965;SDS011;4028;43.272;26.932;2022-12-18T09:26:07;31.27;;;17.93;;
7965;SDS011;4028;43.272;26.932;2022-12-18T09:28:33;27.30;;;17.00;;
7965;SDS011;4028;43.272;26.932;2022-12-18T09:31:02;20.20;;;15.80;;
7965;SDS011;4028;43.272;26.932;2022-12-18T09:33:29;23.57;;;17.30;;
7965;SDS011;4028;43.272;26.932;2022-12-18T09:35:55;20.87;;;15.63;;
7965;SDS011;4028;43.272;26.932;2022-12-18T09:38:20;24.03;;;16.87;;
7965;SDS011;4028;43.272;26.932;2022-12-18T09:40:49;21.10;;;15.60;;
7965;SDS011;4028;43.272;26.932;2022-12-18T09:43:19;20.90;;;15.20;;
7965;SDS011;4028;43.272;26.932;2022-12-18T09:45:52;21.40;;;15.13;;
7965;SDS011;4028;43.272;26.932;2022-12-18T09:48:26;20.50;;;15.60;;
7965;SDS011;4028;43.272;26.932;2022-12-18T09:50:56;22.97;;;16.03;;
7965;SDS011;4028;43.272;26.932;2022-12-18T09:53:26;25.83;;;16.27;;
7965;SDS011;4028;43.272;26.932;2022-12-18T09:55:56;22.07;;;16.17;;
7965;SDS011;4028;43.272;26.932;2022-12-18T09:58:32;20.53;;;15.13;;
7965;SDS011;4028;43.272;26.932;2022-12-18T10:01:10;20.70;;;15.43;;
7965;SDS011;4028;43.272;26.932;2022-12-18T10:03:37;20.93;;;15.43;;
7965;SDS011;4028;43.272;26.932;2022-12-18T10:06:13;22.10;;;15.93;;
7965;SDS011;4028;43.272;26.932;2022-12-18T10:11:19;20.93;;;16.40;;
7965;SDS011;4028;43.272;26.932;2022-12-18T10:25:02;24.57;;;19.63;;
7965;SDS011;4028;43.272;26.932;2022-12-18T10:27:51;25.87;;;16.80;;
7965;SDS011;4028;43.272;26.932;2022-12-18T10:30:21;18.93;;;14.43;;
7965;SDS011;4028;43.272;26.932;2022-12-18T10:32:48;25.53;;;18.13;;
7965;SDS011;4028;43.272;26.932;2022-12-18T10:35:18;24.03;;;16.97;;
7965;SDS011;4028;43.272;26.932;2022-12-18T10:38:03;25.23;;;18.60;;
7965;SDS011;4028;43.272;26.932;2022-12-18T10:40:52;28.33;;;18.83;;
7965;SDS011;4028;43.272;26.932;2022-12-18T10:43:21;26.10;;;18.60;;
7965;SDS011;4028;43.272;26.932;2022-12-18T10:46:04;24.10;;;17.23;;
7965;SDS011;4028;43.272;26.932;2022-12-18T10:48:36;25.60;;;18.70;;
7965;SDS011;4028;43.272;26.932;2022-12-18T10:51:19;22.57;;;18.13;;
7965;SDS011;4028;43.272;26.932;2022-12-18T10:53:50;25.23;;;18.57;;
7965;SDS011;4028;43.272;26.932;2022-12-18T10:56:40;24.77;;;17.77;;
7965;SDS011;4028;43.272;26.932;2022-12-18T10:59:07;21.87;;;16.70;;
7965;SDS011;4028;43.272;26.932;2022-12-18T11:04:26;27.73;;;17.77;;
7965;SDS011;4028;43.272;26.932;2022-12-18T11:07:00;23.70;;;17.93;;
7965;SDS011;4028;43.272;26.932;2022-12-18T11:09:34;24.23;;;18.27;;
7965;SDS011;4028;43.272;26.932;2022-12-18T11:12:02;20.87;;;16.07;;
7965;SDS011;4028;43.272;26.932;2022-12-18T11:14:41;25.60;;;16.97;;
7965;SDS011;4028;43.272;26.932;2022-12-18T11:20:05;27.83;;;18.60;;
7965;SDS011;4028;43.272;26.932;2022-12-18T11:22:44;21.93;;;16.70;;
7965;SDS011;4028;43.272;26.932;2022-12-18T11:25:21;31.23;;;20.03;;
7965;SDS011;4028;43.272;26.932;2022-12-18T11:27:47;26.23;;;19.77;;
7965;SDS011;4028;43.272;26.932;2022-12-18T11:30:21;25.93;;;17.47;;
7965;SDS011;4028;43.272;26.932;2022-12-18T11:32:50;24.27;;;17.70;;
7965;SDS011;4028;43.272;26.932;2022-12-18T11:44:25;26.57;;;18.77;;
7965;SDS011;4028;43.272;26.932;2022-12-18T11:47:00;25.03;;;18.03;;
7965;SDS011;4028;43.272;26.932;2022-12-18T11:49:33;27.40;;;17.93;;
7965;SDS011;4028;43.272;26.932;2022-12-18T11:54:43;24.43;;;17.73;;
7965;SDS011;4028;43.272;26.932;2022-12-18T12:00:11;27.37;;;19.70;;
7965;SDS011;4028;43.272;26.932;2022-12-18T12:25:43;25.07;;;19.00;;
7965;SDS011;4028;43.272;26.932;2022-12-18T12:33:30;25.37;;;18.80;;
7965;SDS011;4028;43.272;26.932;2022-12-18T12:36:20;25.97;;;18.73;;
7965;SDS011;4028;43.272;26.932;2022-12-18T12:39:13;27.63;;;18.23;;
7965;SDS011;4028;43.272;26.932;2022-12-18T12:41:42;25.97;;;17.47;;
7965;SDS011;4028;43.272;26.932;2022-12-18T12:44:35;25.10;;;19.30;;
7965;SDS011;4028;43.272;26.932;2022-12-18T12:47:15;26.37;;;19.37;;
7965;SDS011;4028;43.272;26.932;2022-12-18T12:49:44;26.73;;;19.83;;
7965;SDS011;4028;43.272;26.932;2022-12-18T12:52:15;27.93;;;20.57;;
7965;SDS011;4028;43.272;26.932;2022-12-18T12:54:42;29.33;;;20.33;;
7965;SDS011;4028;43.272;26.932;2022-12-18T12:57:21;31.53;;;19.33;;
7965;SDS011;4028;43.272;26.932;2022-12-18T13:02:50;29.57;;;21.00;;
7965;SDS011;4028;43.272;26.932;2022-12-18T13:08:30;29.27;;;20.80;;
7965;SDS011;4028;43.272;26.932;2022-12-18T13:11:28;26.90;;;19.67;;
7965;SDS011;4028;43.272;26.932;2022-12-18T13:22:37;27.57;;;20.23;;
7965;SDS011;4028;43.272;26.932;2022-12-18T13:25:26;30.00;;;21.50;;
7965;SDS011;4028;43.272;26.932;2022-12-18T13:48:28;29.93;;;20.77;;
7965;SDS011;4028;43.272;26.932;2022-12-18T13:50:58;31.87;;;20.93;;
7965;SDS011;4028;43.272;26.932;2022-12-18T13:56:17;31.77;;;22.83;;
7965;SDS011;4028;43.272;26.932;2022-12-18T14:01:43;38.00;;;25.13;;
7965;SDS011;4028;43.272;26.932;2022-12-18T14:04:32;34.53;;;23.57;;
7965;SDS011;4028;43.272;26.932;2022-12-18T14:07:06;40.60;;;25.67;;
7965;SDS011;4028;43.272;26.932;2022-12-18T14:09:37;33.63;;;22.50;;
7965;SDS011;4028;43.272;26.932;2022-12-18T14:12:12;33.50;;;22.47;;
7965;SDS011;4028;43.272;26.932;2022-12-18T14:15:03;35.03;;;24.00;;
7965;SDS011;4028;43.272;26.932;2022-12-18T14:17:31;28.23;;;21.10;;
7965;SDS011;4028;43.272;26.932;2022-12-18T14:19:57;30.77;;;21.57;;
7965;SDS011;4028;43.272;26.932;2022-12-18T14:22:24;32.23;;;23.67;;
7965;SDS011;4028;43.272;26.932;2022-12-18T14:27:41;32.63;;;22.10;;
7965;SDS011;4028;43.272;26.932;2022-12-18T14:30:24;30.60;;;21.33;;
7965;SDS011;4028;43.272;26.932;2022-12-18T14:35:43;29.27;;;20.13;;
7965;SDS011;4028;43.272;26.932;2022-12-18T14:38:21;29.80;;;21.47;;
7965;SDS011;4028;43.272;26.932;2022-12-18T14:40:47;31.17;;;21.70;;
7965;SDS011;4028;43.272;26.932;2022-12-18T14:43:17;28.93;;;20.57;;
7965;SDS011;4028;43.272;26.932;2022-12-18T14:45:43;32.57;;;22.40;;
7965;SDS011;4028;43.272;26.932;2022-12-18T14:48:15;30.13;;;22.27;;
7965;SDS011;4028;43.272;26.932;2022-12-18T14:50:43;29.27;;;21.07;;
7965;SDS011;4028;43.272;26.932;2022-12-18T14:53:20;32.57;;;21.50;;
7965;SDS011;4028;43.272;26.932;2022-12-18T14:55:56;30.63;;;22.33;;
7965;SDS011;4028;43.272;26.932;2022-12-18T14:58:22;32.70;;;22.43;;
7965;SDS011;4028;43.272;26.932;2022-12-18T15:00:48;29.77;;;21.00;;
7965;SDS011;4028;43.272;26.932;2022-12-18T15:03:17;28.37;;;21.47;;
7965;SDS011;4028;43.272;26.932;2022-12-18T15:05:45;30.13;;;21.60;;
7965;SDS011;4028;43.272;26.932;2022-12-18T15:08:57;34.43;;;23.33;;
7965;SDS011;4028;43.272;26.932;2022-12-18T15:11:01;36.17;;;24.47;;
7965;SDS011;4028;43.272;26.932;2022-12-18T15:13:27;32.23;;;25.00;;
7965;SDS011;4028;43.272;26.932;2022-12-18T15:15:53;31.73;;;23.57;;
7965;SDS011;4028;43.272;26.932;2022-12-18T15:18:23;26.70;;;20.73;;
7965;SDS011;4028;43.272;26.932;2022-12-18T15:20:57;35.70;;;24.00;;
7965;SDS011;4028;43.272;26.932;2022-12-18T15:23:35;27.13;;;20.30;;
7965;SDS011;4028;43.272;26.932;2022-12-18T15:26:11;30.60;;;21.73;;
7965;SDS011;4028;43.272;26.932;2022-12-18T15:28:49;34.83;;;21.30;;
7965;SDS011;4028;43.272;26.932;2022-12-18T15:33:59;28.60;;;21.43;;
7965;SDS011;4028;43.272;26.932;2022-12-18T15:36:30;30.13;;;22.43;;
7965;SDS011;4028;43.272;26.932;2022-12-18T15:38:56;33.07;;;22.37;;
7965;SDS011;4028;43.272;26.932;2022-12-18T15:41:23;36.50;;;24.57;;
7965;SDS011;4028;43.272;26.932;2022-12-18T15:43:50;35.00;;;24.03;;
7965;SDS011;4028;43.272;26.932;2022-12-18T15:46:18;33.40;;;22.93;;
7965;SDS011;4028;43.272;26.932;2022-12-18T15:48:46;40.20;;;25.63;;
7965;SDS011;4028;43.272;26.932;2022-12-18T15:53:43;36.40;;;25.43;;
7965;SDS011;4028;43.272;26.932;2022-12-18T15:56:12;36.37;;;24.73;;
7965;SDS011;4028;43.272;26.932;2022-12-18T15:58:58;35.23;;;24.97;;
7965;SDS011;4028;43.272;26.932;2022-12-18T16:01:25;33.33;;;23.47;;
7965;SDS011;4028;43.272;26.932;2022-12-18T16:03:52;36.67;;;24.07;;
7965;SDS011;4028;43.272;26.932;2022-12-18T16:06:19;39.43;;;25.93;;
7965;SDS011;4028;43.272;26.932;2022-12-18T16:08:45;39.00;;;25.17;;
7965;SDS011;4028;43.272;26.932;2022-12-18T16:11:24;40.60;;;25.23;;
7965;SDS011;4028;43.272;26.932;2022-12-18T16:14:04;40.90;;;26.50;;
7965;SDS011;4028;43.272;26.932;2022-12-18T16:16:31;39.80;;;26.60;;
7965;SDS011;4028;43.272;26.932;2022-12-18T16:18:56;42.80;;;27.40;;
7965;SDS011;4028;43.272;26.932;2022-12-18T16:21:22;39.30;;;27.30;;
7965;SDS011;4028;43.272;26.932;2022-12-18T16:23:47;45.60;;;28.93;;
7965;SDS011;4028;43.272;26.932;2022-12-18T16:26:13;41.10;;;28.60;;
7965;SDS011;4028;43.272;26.932;2022-12-18T16:28:39;40.90;;;28.07;;
7965;SDS011;4028;43.272;26.932;2022-12-18T16:31:04;44.73;;;29.40;;
7965;SDS011;4028;43.272;26.932;2022-12-18T16:33:30;42.90;;;28.07;;
7965;SDS011;4028;43.272;26.932;2022-12-18T16:35:55;45.43;;;28.90;;
7965;SDS011;4028;43.272;26.932;2022-12-18T16:38:21;41.53;;;26.77;;
7965;SDS011;4028;43.272;26.932;2022-12-18T16:40:47;43.13;;;28.37;;
7965;SDS011;4028;43.272;26.932;2022-12-18T16:43:47;44.60;;;27.83;;
7965;SDS011;4028;43.272;26.932;2022-12-18T16:46:13;44.93;;;30.30;;
7965;SDS011;4028;43.272;26.932;2022-12-18T16:48:39;42.37;;;28.60;;
7965;SDS011;4028;43.272;26.932;2022-12-18T16:51:05;47.40;;;28.90;;
7965;SDS011;4028;43.272;26.932;2022-12-18T16:53:31;41.97;;;28.50;;
7965;SDS011;4028;43.272;26.932;2022-12-18T16:55:57;42.33;;;30.00;;
7965;SDS011;4028;43.272;26.932;2022-12-18T16:58:23;42.67;;;28.23;;
7965;SDS011;4028;43.272;26.932;2022-12-18T17:00:49;45.17;;;29.87;;
7965;SDS011;4028;43.272;26.932;2022-12-18T17:03:14;42.83;;;27.93;;
7965;SDS011;4028;43.272;26.932;2022-12-18T17:05:40;43.07;;;28.27;;
7965;SDS011;4028;43.272;26.932;2022-12-18T17:08:05;39.70;;;26.77;;
7965;SDS011;4028;43.272;26.932;2022-12-18T17:10:33;41.63;;;27.80;;
7965;SDS011;4028;43.272;26.932;2022-12-18T17:13:00;43.93;;;27.37;;
7965;SDS011;4028;43.272;26.932;2022-12-18T17:15:25;47.50;;;28.10;;
7965;SDS011;4028;43.272;26.932;2022-12-18T17:17:51;40.23;;;27.90;;
7965;SDS011;4028;43.272;26.932;2022-12-18T17:20:17;45.53;;;27.20;;
7965;SDS011;4028;43.272;26.932;2022-12-18T17:22:43;45.07;;;28.57;;
7965;SDS011;4028;43.272;26.932;2022-12-18T17:25:08;43.73;;;27.70;;